createdAt,value
2018-03-02T00:00:13.314Z,-10.49
2018-03-02T00:02:40.782Z,-10.49
2018-03-02T00:05:08.265Z,-10.52
2018-03-02T00:07:35.795Z,-10.51
2018-03-02T00:10:03.386Z,-10.46
2018-03-02T00:12:30.850Z,-10.46
2018-03-02T00:14:58.570Z,-10.49
2018-03-02T00:17:26.141Z,-10.47
2018-03-02T00:19:53.645Z,-10.47
2018-03-02T00:22:21.106Z,-10.55
2018-03-02T00:24:48.586Z,-10.62
2018-03-02T00:27:16.063Z,-10.66
2018-03-02T00:29:43.573Z,-10.61
2018-03-02T00:32:11.043Z,-10.57
2018-03-02T00:34:38.522Z,-10.66
2018-03-02T00:37:06.049Z,-10.69
2018-03-02T00:39:33.550Z,-10.70
2018-03-02T00:42:01.035Z,-10.68
2018-03-02T00:44:28.508Z,-10.70
2018-03-02T00:46:55.986Z,-10.76
2018-03-02T00:49:23.492Z,-10.74
2018-03-02T00:51:51.039Z,-10.77
2018-03-02T00:54:18.597Z,-10.78
2018-03-02T00:56:46.063Z,-10.78
2018-03-02T00:59:13.538Z,-10.73
2018-03-02T01:01:41.029Z,-10.73
2018-03-02T01:04:08.526Z,-10.78
2018-03-02T01:06:36.096Z,-10.76
2018-03-02T01:09:03.592Z,-10.78
2018-03-02T01:11:31.090Z,-10.88
2018-03-02T01:13:58.606Z,-10.91
2018-03-02T01:16:26.076Z,-10.98
2018-03-02T01:18:53.576Z,-10.99
2018-03-02T01:21:21.151Z,-11.01
2018-03-02T01:23:48.645Z,-10.97
2018-03-02T01:26:16.140Z,-10.90
2018-03-02T01:28:43.616Z,-10.83
2018-03-02T01:31:11.134Z,-10.87
2018-03-02T01:33:38.606Z,-10.82
2018-03-02T01:36:06.133Z,-10.87
2018-03-02T01:38:33.614Z,-10.90
2018-03-02T01:41:01.102Z,-10.97
2018-03-02T01:43:28.606Z,-11.01
2018-03-02T01:45:56.087Z,-11.01
2018-03-02T01:48:23.558Z,-11.02
2018-03-02T01:50:51.070Z,-11.15
2018-03-02T01:53:18.543Z,-11.22
2018-03-02T01:55:46.054Z,-11.27
2018-03-02T01:58:13.531Z,-11.28
2018-03-02T02:00:40.993Z,-11.24
2018-03-02T02:03:08.471Z,-11.18
2018-03-02T02:05:35.987Z,-11.22
2018-03-02T02:08:03.462Z,-11.35
2018-03-02T02:10:30.934Z,-11.32
2018-03-02T02:12:58.444Z,-11.29
2018-03-02T02:15:25.910Z,-11.28
2018-03-02T02:17:53.374Z,-11.36
2018-03-02T02:20:20.842Z,-11.36
2018-03-02T02:22:48.387Z,-11.27
2018-03-02T02:25:15.886Z,-11.28
2018-03-02T02:27:43.401Z,-11.40
2018-03-02T02:30:10.898Z,-11.45
2018-03-02T02:32:38.404Z,-11.44
2018-03-02T02:35:05.903Z,-11.45
2018-03-02T02:37:33.379Z,-11.45
2018-03-02T02:40:00.895Z,-11.47
2018-03-02T02:42:28.365Z,-11.54
2018-03-02T02:44:55.835Z,-11.55
2018-03-02T02:47:23.326Z,-11.54
2018-03-02T02:49:50.801Z,-11.52
2018-03-02T02:52:18.402Z,-11.53
2018-03-02T02:54:45.882Z,-11.48
2018-03-02T02:57:13.359Z,-11.55
2018-03-02T02:59:40.955Z,-11.59
2018-03-02T03:02:08.441Z,-11.62
2018-03-02T03:04:35.924Z,-11.62
2018-03-02T03:07:03.424Z,-11.63
2018-03-02T03:09:30.980Z,-11.65
2018-03-02T03:11:58.488Z,-11.66
2018-03-02T03:14:25.975Z,-11.68
2018-03-02T03:16:53.453Z,-11.67
2018-03-02T03:19:20.938Z,-11.70
2018-03-02T03:21:48.489Z,-11.66
2018-03-02T03:24:15.966Z,-11.68
2018-03-02T03:26:43.441Z,-11.69
2018-03-02T03:29:10.934Z,-11.71
2018-03-02T03:31:38.455Z,-11.75
2018-03-02T03:34:05.957Z,-11.69
2018-03-02T03:36:33.424Z,-11.70
2018-03-02T03:39:00.887Z,-11.72
2018-03-02T03:41:28.437Z,-11.69
2018-03-02T03:43:55.909Z,-11.74
2018-03-02T03:46:23.377Z,-11.79
2018-03-02T03:48:50.877Z,-11.82
2018-03-02T03:51:18.409Z,-11.84
2018-03-02T03:53:45.931Z,-11.86
2018-03-02T03:56:13.407Z,-11.85
2018-03-02T03:58:40.933Z,-11.79
2018-03-02T04:01:08.410Z,-11.76
2018-03-02T04:03:35.886Z,-11.77
2018-03-02T04:06:03.454Z,-11.86
2018-03-02T04:08:30.931Z,-11.89
2018-03-02T04:10:58.389Z,-11.85
2018-03-02T04:13:25.879Z,-11.83
2018-03-02T04:15:53.401Z,-11.78
2018-03-02T04:18:20.905Z,-11.74
2018-03-02T04:20:48.373Z,-11.81
2018-03-02T04:23:15.930Z,-11.88
2018-03-02T04:25:43.410Z,-11.88
2018-03-02T04:28:10.884Z,-11.88
2018-03-02T04:30:38.381Z,-11.89
2018-03-02T04:33:05.855Z,-11.90
2018-03-02T04:35:33.317Z,-11.98
2018-03-02T04:38:00.812Z,-12.02
2018-03-02T04:40:28.371Z,-11.91
2018-03-02T04:42:55.888Z,-11.87
2018-03-02T04:45:23.358Z,-11.90
2018-03-02T04:47:50.845Z,-11.99
2018-03-02T04:50:18.328Z,-11.98
2018-03-02T04:52:45.925Z,-11.99
2018-03-02T04:55:13.488Z,-12.05
2018-03-02T04:57:40.955Z,-12.05
2018-03-02T05:00:08.639Z,-12.09
2018-03-02T05:02:36.143Z,-12.10
2018-03-02T05:05:03.613Z,-12.14
2018-03-02T05:07:31.093Z,-12.16
2018-03-02T05:09:58.586Z,-12.16
2018-03-02T05:12:26.054Z,-12.14
2018-03-02T05:14:53.547Z,-12.18
2018-03-02T05:17:21.053Z,-12.18
2018-03-02T05:19:48.518Z,-12.15
2018-03-02T05:22:15.999Z,-12.04
2018-03-02T05:24:43.513Z,-12.04
2018-03-02T05:27:11.036Z,-12.07
2018-03-02T05:29:38.533Z,-12.15
2018-03-02T05:32:06.210Z,-12.18
2018-03-02T05:34:33.706Z,-12.14
2018-03-02T05:37:01.272Z,-12.09
2018-03-02T05:39:28.749Z,-12.11
2018-03-02T05:41:56.238Z,-12.12
2018-03-02T05:44:23.733Z,-12.09
2018-03-02T05:46:51.218Z,-12.14
2018-03-02T05:49:18.690Z,-12.17
2018-03-02T05:51:46.190Z,-12.14
2018-03-02T05:54:13.894Z,-12.09
2018-03-02T05:56:41.358Z,-12.13
2018-03-02T05:59:08.885Z,-12.14
2018-03-02T06:01:36.382Z,-12.11
2018-03-02T06:04:04.318Z,-12.12
2018-03-02T06:06:31.873Z,-12.07
2018-03-02T06:08:59.344Z,-12.07
2018-03-02T06:11:26.813Z,-12.00
2018-03-02T06:13:54.384Z,-11.97
2018-03-02T06:16:21.846Z,-12.16
2018-03-02T06:18:49.326Z,-12.18
2018-03-02T06:21:16.826Z,-12.14
2018-03-02T06:23:44.302Z,-12.12
2018-03-02T06:26:11.793Z,-12.18
2018-03-02T06:28:39.295Z,-12.04
2018-03-02T06:31:06.794Z,-12.01
2018-03-02T06:33:34.274Z,-11.98
2018-03-02T06:36:01.766Z,-12.02
2018-03-02T06:38:29.255Z,-12.04
2018-03-02T06:40:56.719Z,-12.07
2018-03-02T06:43:24.230Z,-12.05
2018-03-02T06:45:51.725Z,-12.03
2018-03-02T06:48:19.209Z,-12.04
2018-03-02T06:50:46.706Z,-12.01
2018-03-02T06:53:14.273Z,-11.99
2018-03-02T06:55:41.746Z,-11.86
2018-03-02T06:58:10.982Z,-11.77
2018-03-02T07:00:38.457Z,-11.70
2018-03-02T07:03:05.930Z,-11.61
2018-03-02T07:05:33.410Z,-11.67
2018-03-02T07:08:00.909Z,-11.71
2018-03-02T07:10:28.422Z,-11.64
2018-03-02T07:12:55.985Z,-11.73
2018-03-02T07:15:23.459Z,-11.54
2018-03-02T07:17:51.258Z,-11.36
2018-03-02T07:20:18.719Z,-11.34
2018-03-02T07:22:46.221Z,-11.35
2018-03-02T07:25:13.760Z,-11.37
2018-03-02T07:27:41.224Z,-11.41
2018-03-02T07:30:08.702Z,-11.30
2018-03-02T07:32:36.264Z,-11.26
2018-03-02T07:35:03.730Z,-11.26
2018-03-02T07:37:31.228Z,-11.16
2018-03-02T07:39:58.694Z,-11.08
2018-03-02T07:42:26.205Z,-11.11
2018-03-02T07:44:53.751Z,-10.96
2018-03-02T07:47:21.218Z,-10.85
2018-03-02T07:49:48.761Z,-10.89
2018-03-02T07:52:16.217Z,-10.88
2018-03-02T07:54:43.793Z,-10.78
2018-03-02T07:57:11.283Z,-10.76
2018-03-02T07:59:38.762Z,-10.65
2018-03-02T08:02:06.243Z,-10.49
2018-03-02T08:04:33.709Z,-10.31
2018-03-02T08:07:01.223Z,-10.26
2018-03-02T08:09:29.894Z,-10.04
2018-03-02T08:11:57.364Z,-10.02
2018-03-02T08:14:24.913Z,-9.94
2018-03-02T08:16:52.379Z,-9.87
2018-03-02T08:19:19.897Z,-9.93
2018-03-02T08:21:47.408Z,-9.79
2018-03-02T08:24:14.877Z,-9.68
2018-03-02T08:26:42.706Z,-9.56
2018-03-02T08:29:10.212Z,-9.48
2018-03-02T08:31:37.725Z,-9.34
2018-03-02T08:34:05.155Z,-9.28
2018-03-02T08:36:32.648Z,-9.32
2018-03-02T08:39:00.110Z,-9.21
2018-03-02T08:41:27.588Z,-9.11
2018-03-02T08:43:55.216Z,-9.14
2018-03-02T08:46:22.689Z,-9.04
2018-03-02T08:48:50.241Z,-8.95
2018-03-02T08:51:17.931Z,-8.90
2018-03-02T08:53:45.421Z,-8.85
2018-03-02T08:56:12.906Z,-8.76
2018-03-02T08:58:40.402Z,-8.74
2018-03-02T09:01:07.990Z,-8.75
2018-03-02T09:03:35.461Z,-8.46
2018-03-02T09:06:03.006Z,-8.37
2018-03-02T09:08:30.497Z,-8.28
2018-03-02T09:10:57.970Z,-8.30
2018-03-02T09:13:25.459Z,-8.39
2018-03-02T09:15:53.059Z,-8.37
2018-03-02T09:18:20.567Z,-8.28
2018-03-02T09:20:48.078Z,-8.22
2018-03-02T09:23:15.613Z,-8.16
2018-03-02T09:25:43.099Z,-8.01
2018-03-02T09:28:10.568Z,-7.90
2018-03-02T09:30:38.047Z,-7.83
2018-03-02T09:33:05.538Z,-7.67
2018-03-02T09:35:33.033Z,-7.55
2018-03-02T09:38:00.522Z,-7.32
2018-03-02T09:40:28.025Z,-7.09
2018-03-02T09:42:55.509Z,-7.11
2018-03-02T09:45:22.976Z,-6.88
2018-03-02T09:47:50.524Z,-6.84
2018-03-02T09:50:18.015Z,-7.12
2018-03-02T09:52:45.508Z,-7.26
2018-03-02T09:55:13.008Z,-7.23
2018-03-02T09:57:40.534Z,-7.18
2018-03-02T10:00:08.019Z,-7.13
2018-03-02T10:02:35.539Z,-7.01
2018-03-02T10:05:03.038Z,-6.93
2018-03-02T10:07:30.538Z,-6.77
2018-03-02T10:09:58.018Z,-6.76
2018-03-02T10:12:25.487Z,-6.45
2018-03-02T10:14:52.958Z,-6.16
2018-03-02T10:17:20.452Z,-5.91
2018-03-02T10:19:48.037Z,-6.28
2018-03-02T10:22:15.534Z,-6.49
2018-03-02T10:24:43.062Z,-6.69
2018-03-02T10:27:10.560Z,-6.47
2018-03-02T10:29:38.031Z,-6.12
2018-03-02T10:32:05.504Z,-6.33
2018-03-02T10:34:33.022Z,-6.50
2018-03-02T10:37:00.550Z,-6.48
2018-03-02T10:39:28.030Z,-6.15
2018-03-02T10:41:55.585Z,-5.98
2018-03-02T10:44:23.054Z,-5.58
2018-03-02T10:46:50.526Z,-5.70
2018-03-02T10:49:18.015Z,-5.60
2018-03-02T10:51:45.502Z,-5.24
2018-03-02T10:54:12.972Z,-5.15
2018-03-02T10:56:40.451Z,-5.45
2018-03-02T10:59:07.934Z,-5.76
2018-03-02T11:01:40.961Z,-5.82
2018-03-02T11:04:08.437Z,-5.76
2018-03-02T11:06:35.911Z,-5.67
2018-03-02T11:09:03.411Z,-5.53
2018-03-02T11:11:30.891Z,-5.11
2018-03-02T11:13:58.359Z,-4.78
2018-03-02T11:16:25.867Z,-4.87
2018-03-02T11:18:53.344Z,-5.06
2018-03-02T11:21:20.842Z,-5.36
2018-03-02T11:23:48.314Z,-5.49
2018-03-02T11:26:15.826Z,-5.42
2018-03-02T11:28:43.326Z,-5.38
2018-03-02T11:31:10.945Z,-5.38
2018-03-02T11:33:38.434Z,-5.37
2018-03-02T11:36:05.907Z,-5.46
2018-03-02T11:38:33.407Z,-5.30
2018-03-02T11:41:00.886Z,-5.29
2018-03-02T11:43:28.354Z,-5.17
2018-03-02T11:45:55.859Z,-5.15
2018-03-02T11:48:23.369Z,-5.17
2018-03-02T11:50:50.857Z,-5.12
2018-03-02T11:53:18.361Z,-4.89
2018-03-02T11:55:45.834Z,-4.63
2018-03-02T11:58:13.301Z,-4.60
2018-03-02T12:00:40.799Z,-4.46
2018-03-02T12:03:08.287Z,-4.29
2018-03-02T12:05:35.806Z,-4.51
2018-03-02T12:08:03.330Z,-4.49
2018-03-02T12:10:30.798Z,-4.43
2018-03-02T12:12:58.346Z,-4.60
2018-03-02T12:15:25.839Z,-4.78
2018-03-02T12:17:53.330Z,-4.88
2018-03-02T12:20:20.958Z,-4.80
2018-03-02T12:22:48.513Z,-4.73
2018-03-02T12:25:15.989Z,-4.33
2018-03-02T12:27:43.502Z,-3.93
2018-03-02T12:30:10.998Z,-4.22
2018-03-02T12:32:38.478Z,-4.15
2018-03-02T12:35:05.954Z,-3.97
2018-03-02T12:37:33.438Z,-4.16
2018-03-02T12:40:00.935Z,-3.97
2018-03-02T12:42:28.410Z,-3.76
2018-03-02T12:44:55.890Z,-4.01
2018-03-02T12:47:23.381Z,-4.20
2018-03-02T12:49:50.979Z,-4.08
2018-03-02T12:52:18.467Z,-4.24
2018-03-02T12:54:45.962Z,-4.31
2018-03-02T12:57:13.505Z,-4.47
2018-03-02T12:59:41.009Z,-4.48
2018-03-02T13:02:08.481Z,-4.60
2018-03-02T13:04:35.977Z,-4.59
2018-03-02T13:07:03.467Z,-4.42
2018-03-02T13:09:30.953Z,-4.42
2018-03-02T13:11:58.437Z,-4.36
2018-03-02T13:14:26.010Z,-4.24
2018-03-02T13:16:53.518Z,-4.08
2018-03-02T13:19:20.980Z,-4.10
2018-03-02T13:21:48.459Z,-4.27
2018-03-02T13:24:15.932Z,-4.32
2018-03-02T13:26:55.364Z,-4.30
2018-03-02T13:29:22.826Z,-4.28
2018-03-02T13:31:50.308Z,-4.19
2018-03-02T13:34:29.486Z,-3.88
2018-03-02T13:36:56.966Z,-3.61
2018-03-02T13:39:36.360Z,-3.58
2018-03-02T13:42:09.276Z,-3.48
2018-03-02T13:44:36.846Z,-3.42
2018-03-02T13:47:04.332Z,-3.79
2018-03-02T13:49:43.685Z,-4.05
2018-03-02T13:52:11.140Z,-4.02
2018-03-02T13:54:38.615Z,-3.90
2018-03-02T13:57:17.875Z,-3.98
2018-03-02T13:59:45.354Z,-4.03
2018-03-02T14:02:24.682Z,-3.96
2018-03-02T14:04:59.011Z,-4.01
2018-03-02T14:07:26.489Z,-4.08
2018-03-02T14:09:54.000Z,-3.98
2018-03-02T14:12:21.466Z,-3.99
2018-03-02T14:14:48.930Z,-3.77
2018-03-02T14:17:16.433Z,-3.55
2018-03-02T14:19:43.904Z,-3.60
2018-03-02T14:22:11.616Z,-3.77
2018-03-02T14:24:39.113Z,-3.87
2018-03-02T14:27:06.571Z,-3.86
2018-03-02T14:29:34.858Z,-3.79
2018-03-02T14:32:02.409Z,-3.89
2018-03-02T14:34:29.894Z,-3.86
2018-03-02T14:36:57.365Z,-3.94
2018-03-02T14:39:24.935Z,-3.89
2018-03-02T14:41:52.411Z,-3.96
2018-03-02T14:44:19.942Z,-3.96
2018-03-02T14:46:47.411Z,-3.83
2018-03-02T14:49:14.906Z,-3.78
2018-03-02T14:51:42.425Z,-3.60
2018-03-02T14:54:09.958Z,-3.47
2018-03-02T14:56:37.429Z,-3.70
2018-03-02T14:59:04.901Z,-3.79
2018-03-02T15:01:32.406Z,-3.73
2018-03-02T15:03:59.867Z,-3.57
2018-03-02T15:06:27.378Z,-3.46
2018-03-02T15:08:54.975Z,-3.34
2018-03-02T15:11:22.437Z,-3.39
2018-03-02T15:13:49.922Z,-3.33
2018-03-02T15:16:17.402Z,-3.57
2018-03-02T15:18:44.877Z,-3.79
2018-03-02T15:21:12.365Z,-3.94
2018-03-02T15:23:39.895Z,-4.06
2018-03-02T15:26:07.361Z,-4.10
2018-03-02T15:28:34.946Z,-4.03
2018-03-02T15:31:02.446Z,-4.05
2018-03-02T15:33:29.890Z,-4.02
2018-03-02T15:35:57.440Z,-3.96
2018-03-02T15:38:25.050Z,-3.98
2018-03-02T15:40:52.528Z,-4.03
2018-03-02T15:43:20.005Z,-4.14
2018-03-02T15:45:47.489Z,-4.22
2018-03-02T15:48:14.963Z,-4.31
2018-03-02T15:50:42.466Z,-4.35
2018-03-02T15:53:09.972Z,-4.36
2018-03-02T15:55:37.479Z,-4.37
2018-03-02T15:58:05.039Z,-4.41
2018-03-02T16:00:32.788Z,-4.46
2018-03-02T16:03:00.261Z,-4.50
2018-03-02T16:05:27.723Z,-4.54
2018-03-02T16:07:55.228Z,-4.58
2018-03-02T16:10:22.701Z,-4.56
2018-03-02T16:12:50.191Z,-4.56
2018-03-02T16:15:17.735Z,-4.55
2018-03-02T16:17:45.199Z,-4.59
2018-03-02T16:20:12.665Z,-4.63
2018-03-02T16:22:40.206Z,-4.70
2018-03-02T16:25:07.731Z,-4.73
2018-03-02T16:27:35.195Z,-4.75
2018-03-02T16:30:02.757Z,-4.77
2018-03-02T16:32:30.328Z,-4.80
2018-03-02T16:34:57.797Z,-4.79
2018-03-02T16:37:25.290Z,-4.79
2018-03-02T16:39:52.749Z,-4.85
2018-03-02T16:42:21.161Z,-4.87
2018-03-02T16:44:48.642Z,-4.85
2018-03-02T16:47:16.127Z,-4.85
2018-03-02T16:49:43.607Z,-4.91
2018-03-02T16:52:11.151Z,-4.95
2018-03-02T16:54:38.619Z,-5.00
2018-03-02T16:57:06.121Z,-5.04
2018-03-02T16:59:33.831Z,-5.06
2018-03-02T17:02:01.293Z,-5.08
2018-03-02T17:04:28.795Z,-5.05
2018-03-02T17:06:56.290Z,-5.08
2018-03-02T17:09:23.878Z,-5.14
2018-03-02T17:11:51.397Z,-5.14
2018-03-02T17:14:18.902Z,-5.17
2018-03-02T17:16:46.378Z,-5.18
2018-03-02T17:19:13.897Z,-5.22
2018-03-02T17:21:41.365Z,-5.25
2018-03-02T17:24:08.823Z,-5.28
2018-03-02T17:26:36.320Z,-5.27
2018-03-02T17:29:03.794Z,-5.30
2018-03-02T17:31:31.261Z,-5.29
2018-03-02T17:33:58.774Z,-5.29
2018-03-02T17:36:26.270Z,-5.31
2018-03-02T17:38:53.782Z,-5.27
2018-03-02T17:41:21.259Z,-5.34
2018-03-02T17:43:48.837Z,-5.35
2018-03-02T17:46:16.345Z,-5.41
2018-03-02T17:48:43.812Z,-5.46
2018-03-02T17:51:11.366Z,-5.47
2018-03-02T17:53:38.881Z,-5.52
2018-03-02T17:56:06.384Z,-5.55
2018-03-02T17:58:33.850Z,-5.57
2018-03-02T18:01:01.347Z,-5.59
2018-03-02T18:03:28.837Z,-5.62
2018-03-02T18:05:56.346Z,-5.63
2018-03-02T18:08:23.821Z,-5.64
2018-03-02T18:10:51.312Z,-5.67
2018-03-02T18:13:18.846Z,-5.66
2018-03-02T18:15:46.335Z,-5.68
2018-03-02T18:18:13.803Z,-5.73
2018-03-02T18:20:41.302Z,-5.75
2018-03-02T18:23:08.785Z,-5.82
2018-03-02T18:25:36.261Z,-5.81
2018-03-02T18:28:03.770Z,-5.85
2018-03-02T18:30:31.306Z,-5.88
2018-03-02T18:32:58.781Z,-5.91
2018-03-02T18:35:26.275Z,-5.93
2018-03-02T18:37:53.754Z,-6.01
2018-03-02T18:40:21.252Z,-6.02
2018-03-02T18:42:48.741Z,-6.03
2018-03-02T18:45:16.222Z,-6.04
2018-03-02T18:47:43.733Z,-6.08
2018-03-02T18:50:11.226Z,-6.10
2018-03-02T18:52:38.733Z,-6.15
2018-03-02T18:55:06.337Z,-6.19
2018-03-02T18:57:33.816Z,-6.19
2018-03-02T19:00:01.353Z,-6.17
2018-03-02T19:02:28.836Z,-6.16
2018-03-02T19:04:56.409Z,-6.18
2018-03-02T19:07:23.909Z,-6.25
2018-03-02T19:09:51.376Z,-6.28
2018-03-02T19:12:18.882Z,-6.29
2018-03-02T19:14:46.462Z,-6.28
2018-03-02T19:17:13.948Z,-6.30
2018-03-02T19:19:41.462Z,-6.33
2018-03-02T19:22:08.967Z,-6.36
2018-03-02T19:24:36.461Z,-6.41
2018-03-02T19:27:03.993Z,-6.46
2018-03-02T19:29:31.634Z,-6.50
2018-03-02T19:31:59.229Z,-6.47
2018-03-02T19:34:26.901Z,-6.52
2018-03-02T19:36:54.491Z,-6.55
2018-03-02T19:39:22.106Z,-6.56
2018-03-02T19:41:49.712Z,-6.61
2018-03-02T19:44:17.358Z,-6.66
2018-03-02T19:46:44.960Z,-6.66
2018-03-02T19:49:12.575Z,-6.73
2018-03-02T19:51:40.120Z,-6.76
2018-03-02T19:54:07.741Z,-6.77
2018-03-02T19:56:35.308Z,-6.77
2018-03-02T19:59:02.852Z,-6.80
2018-03-02T20:01:30.415Z,-6.84
2018-03-02T20:03:58.052Z,-6.90
2018-03-02T20:06:25.688Z,-6.91
2018-03-02T20:08:53.214Z,-6.81
2018-03-02T20:11:20.706Z,-6.87
2018-03-02T20:13:48.278Z,-6.90
2018-03-02T20:16:15.872Z,-6.87
2018-03-02T20:18:43.472Z,-6.91
2018-03-02T20:21:11.023Z,-6.99
2018-03-02T20:23:38.499Z,-7.06
2018-03-02T20:26:06.014Z,-7.11
2018-03-02T20:28:33.551Z,-7.14
2018-03-02T20:31:01.032Z,-7.15
2018-03-02T20:33:28.530Z,-7.20
2018-03-02T20:35:56.066Z,-7.12
2018-03-02T20:38:23.558Z,-7.04
2018-03-02T20:40:51.046Z,-7.11
2018-03-02T20:43:18.538Z,-7.21
2018-03-02T20:45:46.041Z,-7.29
2018-03-02T20:48:13.526Z,-7.30
2018-03-02T20:50:41.006Z,-7.30
2018-03-02T20:53:08.928Z,-7.32
2018-03-02T20:55:36.406Z,-7.35
2018-03-02T20:58:03.923Z,-7.44
2018-03-02T21:00:31.418Z,-7.46
2018-03-02T21:02:58.957Z,-7.44
2018-03-02T21:05:26.466Z,-7.43
2018-03-02T21:07:53.942Z,-7.39
2018-03-02T21:10:21.419Z,-7.45
2018-03-02T21:12:48.932Z,-7.45
2018-03-02T21:15:16.403Z,-7.53
2018-03-02T21:17:43.970Z,-7.56
2018-03-02T21:20:11.466Z,-7.62
2018-03-02T21:22:38.965Z,-7.64
2018-03-02T21:25:06.443Z,-7.64
2018-03-02T21:27:33.954Z,-7.68
2018-03-02T21:30:01.453Z,-7.74
2018-03-02T21:32:29.063Z,-7.78
2018-03-02T21:34:56.574Z,-7.82
2018-03-02T21:37:24.153Z,-7.86
2018-03-02T21:39:51.695Z,-7.84
2018-03-02T21:42:19.205Z,-7.93
2018-03-02T21:44:46.712Z,-7.89
2018-03-02T21:47:14.319Z,-7.92
2018-03-02T21:49:41.966Z,-7.93
2018-03-02T21:52:09.433Z,-7.91
2018-03-02T21:54:36.946Z,-7.91
2018-03-02T21:57:04.977Z,-7.91
2018-03-02T21:59:32.468Z,-7.97
2018-03-02T22:02:00.030Z,-7.99
2018-03-02T22:04:27.534Z,-7.84
2018-03-02T22:06:55.005Z,-7.78
2018-03-02T22:09:22.494Z,-7.93
2018-03-02T22:11:49.986Z,-8.07
2018-03-02T22:14:17.521Z,-8.06
2018-03-02T22:16:45.011Z,-8.08
2018-03-02T22:19:12.494Z,-8.10
2018-03-02T22:21:39.976Z,-8.15
2018-03-02T22:24:07.488Z,-8.21
2018-03-02T22:26:35.085Z,-8.22
2018-03-02T22:29:02.566Z,-8.27
2018-03-02T22:31:30.078Z,-8.28
2018-03-02T22:33:57.559Z,-8.31
2018-03-02T22:36:25.036Z,-8.37
2018-03-02T22:38:52.534Z,-8.37
2018-03-02T22:41:20.013Z,-8.35
2018-03-02T22:43:47.498Z,-8.36
2018-03-02T22:46:14.990Z,-8.37
2018-03-02T22:48:42.463Z,-8.41
2018-03-02T22:51:10.004Z,-8.43
2018-03-02T22:53:37.488Z,-8.52
2018-03-02T22:56:04.979Z,-8.55
2018-03-02T22:58:32.541Z,-8.53
2018-03-02T23:01:00.019Z,-8.46
2018-03-02T23:03:27.505Z,-8.46
2018-03-02T23:05:54.974Z,-8.54
2018-03-02T23:08:22.446Z,-8.54
2018-03-02T23:10:49.967Z,-8.54
2018-03-02T23:13:17.513Z,-8.64
2018-03-02T23:15:44.983Z,-8.64
2018-03-02T23:18:12.493Z,-8.62
2018-03-02T23:20:39.982Z,-8.60
2018-03-02T23:23:07.460Z,-8.68
2018-03-02T23:25:34.960Z,-8.72
2018-03-02T23:28:02.453Z,-8.76
2018-03-02T23:30:29.930Z,-8.82
2018-03-02T23:32:57.502Z,-8.90
2018-03-02T23:35:25.014Z,-8.90
2018-03-02T23:37:53.479Z,-8.91
2018-03-02T23:40:20.975Z,-8.91
2018-03-02T23:42:48.543Z,-8.93
2018-03-02T23:45:16.002Z,-8.92
2018-03-02T23:47:43.501Z,-8.94
2018-03-02T23:50:11.236Z,-8.99
2018-03-02T23:52:39.351Z,-8.94
2018-03-02T23:55:06.821Z,-8.98
2018-03-02T23:57:34.321Z,-8.95
